Time;durP1;ratioP1;P1;durP2;ratioP2;P2;SDS_P1;SDS_P2;PMS_P1;PMS_P2;Temp;Humidity;BMP_temperature;BMP_pressure;BME280_temperature;BME280_humidity;BME280_pressure;Samples;Min_cycle;Max_cycle;Signal;HPM_P1;HPM_P2
2023/05/09 00:01:57;;;;;;;11.30;10.70;;;;;;;12.21;100.00;93122.31;5089909;28;20250;-71
2023/05/09 00:04:23;;;;;;;9.83;9.33;;;;;;;11.83;100.00;93102.97;5089944;28;20783;-72
2023/05/09 00:06:48;;;;;;;11.00;10.27;;;;;;;12.11;100.00;93114.56;5089782;28;20217;-71
2023/05/09 00:09:13;;;;;;;10.87;10.27;;;;;;;11.96;100.00;93109.41;5100071;28;20200;-71
2023/05/09 00:11:39;;;;;;;9.90;9.40;;;;;;;11.80;100.00;93066.91;5089227;28;20236;-71
2023/05/09 00:14:05;;;;;;;10.77;10.07;;;;;;;11.63;100.00;93103.13;5090104;28;20238;-71
2023/05/09 00:16:31;;;;;;;11.07;10.37;;;;;;;11.66;100.00;93097.34;5089139;28;20232;-71
2023/05/09 00:18:57;;;;;;;10.30;9.70;;;;;;;11.77;100.00;93105.91;5089977;28;20252;-71
2023/05/09 00:21:23;;;;;;;10.20;9.60;;;;;;;11.90;100.00;93107.91;5088780;28;20229;-70
2023/05/09 00:23:48;;;;;;;12.27;11.33;;;;;;;11.86;100.00;93097.19;5090377;28;20182;-72
2023/05/09 00:26:14;;;;;;;10.27;9.67;;;;;;;11.73;100.00;93092.59;5089219;28;20232;-71
2023/05/09 00:28:40;;;;;;;10.40;9.53;;;;;;;11.58;100.00;93084.81;5089619;28;20200;-70
2023/05/09 00:31:05;;;;;;;11.90;11.20;;;;;;;11.75;100.00;93089.72;5088174;28;20228;-72
2023/05/09 00:33:31;;;;;;;11.40;10.70;;;;;;;11.97;100.00;93101.28;5089580;28;20215;-71
2023/05/09 00:35:56;;;;;;;10.60;10.00;;;;;;;12.15;100.00;93100.63;5088993;28;20228;-71
2023/05/09 00:38:22;;;;;;;11.20;10.60;;;;;;;12.19;100.00;93098.22;5089376;28;20181;-71
2023/05/09 00:40:48;;;;;;;10.77;10.17;;;;;;;12.12;100.00;93087.31;5088640;28;20232;-72
2023/05/09 00:43:13;;;;;;;10.43;9.70;;;;;;;12.27;100.00;93100.25;5089511;28;20193;-71
2023/05/09 00:45:39;;;;;;;11.40;10.70;;;;;;;12.36;100.00;93098.59;5087272;28;20236;-72
2023/05/09 00:48:05;;;;;;;10.90;10.30;;;;;;;12.31;100.00;93094.19;5088979;28;20184;-71
2023/05/09 00:50:30;;;;;;;9.63;9.10;;;;;;;12.17;100.00;93084.66;5091926;28;20229;-70
2023/05/09 00:52:56;;;;;;;11.10;10.40;;;;;;;12.09;100.00;93090.47;5093080;28;20252;-70
2023/05/09 00:55:22;;;;;;;11.37;10.67;;;;;;;12.12;100.00;93090.72;5093058;28;20240;-71
2023/05/09 00:57:47;;;;;;;11.80;10.90;;;;;;;12.35;100.00;93100.44;5093071;28;20207;-71
2023/05/09 01:00:13;;;;;;;13.50;12.20;;;;;;;12.27;100.00;93087.94;5092757;28;20233;-69
2023/05/09 01:02:52;;;;;;;15.07;13.53;;;;;;;12.38;100.00;93105.13;5092789;28;20181;-69
2023/05/09 01:05:18;;;;;;;13.17;11.47;;;;;;;12.24;100.00;93103.41;5092509;28;20230;-68
2023/05/09 01:07:53;;;;;;;10.70;9.97;;;;;;;12.16;100.00;93106.63;5099494;28;20191;-68
2023/05/09 01:10:22;;;;;;;12.10;11.10;;;;;;;12.26;100.00;93101.31;5081105;28;20238;-68
2023/05/09 01:13:46;;;;;;;12.27;11.47;;;;;;;12.25;100.00;93103.16;5092580;28;20203;-70
2023/05/09 01:16:25;;;;;;;12.13;11.33;;;;;;;12.39;100.00;93101.44;5041423;28;20227;-68
2023/05/09 01:19:00;;;;;;;12.33;11.33;;;;;;;12.33;100.00;93102.56;5092656;28;20206;-68
2023/05/09 01:21:29;;;;;;;11.47;10.63;;;;;;;12.45;100.00;93096.94;5092072;28;20216;-68
2023/05/09 01:24:13;;;;;;;11.60;10.90;;;;;;;12.42;100.00;93100.13;5092927;28;20181;-68
2023/05/09 01:26:48;;;;;;;12.23;11.27;;;;;;;12.38;100.00;93104.34;5082374;28;20226;-68
2023/05/09 01:29:37;;;;;;;11.63;10.87;;;;;;;12.43;100.00;93102.47;5092421;28;20184;-68
2023/05/09 01:32:07;;;;;;;11.87;10.87;;;;;;;12.48;100.00;93096.38;5074776;28;20209;-68
2023/05/09 01:34:34;;;;;;;12.47;11.57;;;;;;;12.59;100.00;93090.00;5091246;28;20312;-68
2023/05/09 01:37:02;;;;;;;11.43;10.73;;;;;;;12.44;100.00;93103.22;5092099;28;20779;-68
2023/05/09 01:39:31;;;;;;;11.47;10.77;;;;;;;12.35;100.00;93097.03;5074756;28;20207;-68
2023/05/09 01:42:00;;;;;;;11.73;10.93;;;;;;;12.44;100.00;93103.22;5092423;28;20192;-68
2023/05/09 01:44:34;;;;;;;12.07;11.27;;;;;;;12.37;100.00;93093.06;5092244;28;20181;-68
2023/05/09 01:47:01;;;;;;;11.83;10.90;;;;;;;12.41;100.00;93088.06;5092321;28;20189;-68
2023/05/09 01:49:30;;;;;;;11.80;11.10;;;;;;;12.01;100.00;93104.94;5091793;28;20193;-68
2023/05/09 01:51:57;;;;;;;11.60;10.80;;;;;;;12.26;100.00;93093.47;5092147;28;20203;-68
2023/05/09 01:54:25;;;;;;;10.77;10.03;;;;;;;12.25;100.00;93105.00;5092520;28;20189;-69
2023/05/09 01:56:51;;;;;;;11.27;10.37;;;;;;;11.94;100.00;93101.09;5074117;28;20223;-68
2023/05/09 01:59:18;;;;;;;10.73;10.13;;;;;;;12.15;100.00;93100.63;5092423;28;20275;-67
2023/05/09 02:01:45;;;;;;;11.43;10.67;;;;;;;12.21;100.00;93093.50;5091552;28;20200;-68
2023/05/09 02:04:13;;;;;;;11.70;11.00;;;;;;;12.20;100.00;93097.19;5091868;28;20247;-68
2023/05/09 02:06:40;;;;;;;13.40;12.40;;;;;;;12.15;100.00;93095.41;5091306;28;20217;-66
2023/05/09 02:09:06;;;;;;;11.13;10.33;;;;;;;12.17;100.00;93092.50;5092020;28;20218;-68
2023/05/09 02:11:32;;;;;;;11.50;10.80;;;;;;;12.18;100.00;93094.84;5091435;28;20226;-68
2023/05/09 02:13:58;;;;;;;11.67;10.97;;;;;;;12.19;100.00;93095.59;5074390;28;20212;-68
2023/05/09 02:16:24;;;;;;;10.57;9.97;;;;;;;12.13;100.00;93086.25;5091180;28;20209;-68
2023/05/09 02:18:49;;;;;;;11.77;11.07;;;;;;;12.15;100.00;93086.75;5091948;28;20199;-67
2023/05/09 02:21:14;;;;;;;12.43;11.63;;;;;;;12.21;100.00;93090.88;5091095;28;20236;-68
2023/05/09 02:23:40;;;;;;;11.57;10.87;;;;;;;12.14;100.00;93085.97;5092102;28;20181;-68
2023/05/09 02:26:06;;;;;;;11.73;11.03;;;;;;;12.23;100.00;93089.53;5091485;28;20232;-68
2023/05/09 02:28:32;;;;;;;11.33;10.53;;;;;;;12.16;100.00;93085.69;5091688;28;20168;-68
2023/05/09 02:31:00;;;;;;;11.37;10.67;;;;;;;12.32;100.00;93090.53;5090807;28;20223;-68
2023/05/09 02:33:28;;;;;;;11.23;10.33;;;;;;;12.25;100.00;93094.53;5091976;28;20185;-68
2023/05/09 02:35:55;;;;;;;10.97;10.20;;;;;;;12.18;100.00;93084.38;5090411;28;20212;-68
2023/05/09 02:38:21;;;;;;;10.73;9.97;;;;;;;12.12;100.00;93093.34;5091252;28;20218;-68
2023/05/09 02:40:46;;;;;;;11.53;10.73;;;;;;;12.10;100.00;93076.31;5078425;28;20228;-68
2023/05/09 02:43:13;;;;;;;10.70;10.10;;;;;;;12.03;100.00;93075.88;5091537;28;20196;-69
2023/05/09 02:45:39;;;;;;;11.57;10.87;;;;;;;12.24;100.00;93092.94;5090562;28;20223;-68
2023/05/09 02:48:05;;;;;;;11.90;11.10;;;;;;;12.17;100.00;93084.66;5091175;28;20212;-68
2023/05/09 02:50:31;;;;;;;10.90;10.23;;;;;;;12.15;100.00;93090.16;5090509;28;20242;-68
2023/05/09 02:52:56;;;;;;;11.17;10.47;;;;;;;12.11;100.00;93094.38;5091164;28;20177;-68
2023/05/09 02:55:22;;;;;;;10.77;9.97;;;;;;;12.17;100.00;93092.50;5090877;28;20215;-68
2023/05/09 02:57:47;;;;;;;11.50;10.80;;;;;;;12.17;100.00;93092.50;5091237;28;20188;-69
2023/05/09 03:00:13;;;;;;;11.77;10.97;;;;;;;12.10;100.00;93094.66;5090370;28;20227;-68
2023/05/09 03:02:38;;;;;;;12.10;11.30;;;;;;;12.19;100.00;93093.00;5090999;28;20194;-68
2023/05/09 03:05:04;;;;;;;10.30;9.30;;;;;;;12.19;100.00;93099.00;5090362;28;20221;-70
2023/05/09 03:07:30;;;;;;;12.07;10.93;;;;;;;12.08;100.00;93107.22;5090978;28;20184;-68
2023/05/09 03:09:55;;;;;;;10.53;9.97;;;;;;;12.07;100.00;93110.91;5090272;28;20224;-68
2023/05/09 03:12:20;;;;;;;10.90;10.20;;;;;;;12.02;100.00;93103.09;5072744;28;20184;-68
2023/05/09 03:14:46;;;;;;;11.60;10.90;;;;;;;12.01;100.00;93091.88;5089937;28;20240;-67
2023/05/09 03:17:16;;;;;;;12.13;11.37;;;;;;;12.17;100.00;93100.34;5090687;28;20197;-68
2023/05/09 03:19:41;;;;;;;11.47;10.83;;;;;;;12.22;100.00;93113.38;5090042;28;20256;-68
2023/05/09 03:22:06;;;;;;;11.40;10.60;;;;;;;12.15;100.00;93099.84;5090586;28;20196;-68
2023/05/09 03:24:32;;;;;;;11.83;11.10;;;;;;;12.20;100.00;93120.75;5090043;28;20188;-67
2023/05/09 03:26:57;;;;;;;12.03;11.23;;;;;;;12.23;100.00;93113.09;5090504;28;20204;-69
2023/05/09 03:29:23;;;;;;;11.57;10.77;;;;;;;12.32;100.00;93129.00;5089871;28;20237;-69
2023/05/09 03:31:48;;;;;;;12.13;11.13;;;;;;;12.45;100.00;93133.63;5096592;28;20196;-69
2023/05/09 03:34:14;;;;;;;12.63;11.83;;;;;;;12.37;100.00;93140.19;5090253;28;20223;-69
2023/05/09 03:36:42;;;;;;;11.87;11.10;;;;;;;12.33;100.00;93139.19;5089692;28;20228;-68
2023/05/09 03:39:08;;;;;;;11.57;10.77;;;;;;;12.22;100.00;93139.56;5090298;28;20193;-67
2023/05/09 03:41:35;;;;;;;11.67;10.87;;;;;;;12.37;100.00;93149.91;5089557;28;20220;-68
2023/05/09 03:44:01;;;;;;;11.80;11.00;;;;;;;12.35;100.00;93154.63;5078882;28;20203;-68
2023/05/09 03:46:26;;;;;;;11.73;10.93;;;;;;;12.37;100.00;93144.69;5089454;28;20634;-71
2023/05/09 03:48:51;;;;;;;12.10;11.23;;;;;;;12.26;100.00;93151.06;5089478;28;20177;-74
2023/05/09 03:51:17;;;;;;;13.53;12.20;;;;;;;12.23;100.00;93155.00;5089645;28;20301;-71
2023/05/09 03:53:45;;;;;;;12.37;11.57;;;;;;;12.22;100.00;93147.41;5089915;28;20183;-71
2023/05/09 03:56:10;;;;;;;12.37;11.47;;;;;;;12.29;100.00;93155.75;5089424;28;20234;-69
2023/05/09 03:58:35;;;;;;;12.27;11.47;;;;;;;12.18;100.00;93146.41;5072157;28;20209;-70
2023/05/09 04:01:01;;;;;;;11.87;11.07;;;;;;;12.36;100.00;93159.59;5089352;28;20295;-68
2023/05/09 04:03:27;;;;;;;13.57;12.67;;;;;;;12.27;100.00;93119.38;5088978;28;20192;-68
2023/05/09 04:05:52;;;;;;;12.87;11.97;;;;;;;12.54;100.00;93156.31;5088369;28;20344;-66
2023/05/09 04:08:18;;;;;;;13.07;12.27;;;;;;;12.45;100.00;93150.09;5088222;28;20177;-69
2023/05/09 04:10:43;;;;;;;13.10;11.93;;;;;;;12.58;100.00;93153.91;5088369;28;20221;-69
2023/05/09 04:13:10;;;;;;;13.50;12.60;;;;;;;12.75;100.00;93162.09;5088646;28;20198;-67
2023/05/09 04:15:35;;;;;;;13.00;12.10;;;;;;;12.85;100.00;93146.28;5088119;28;20216;-68
2023/05/09 04:18:00;;;;;;;13.73;12.73;;;;;;;12.94;100.00;93150.63;5088644;28;20248;-70
2023/05/09 04:20:26;;;;;;;12.03;11.03;;;;;;;12.79;100.00;93134.31;5088899;28;20287;-69
2023/05/09 04:22:51;;;;;;;12.37;11.47;;;;;;;13.03;100.00;93163.94;5089231;28;20173;-69
2023/05/09 04:25:19;;;;;;;11.30;10.43;;;;;;;12.73;100.00;93159.00;5082613;28;20220;-68
2023/05/09 04:27:44;;;;;;;11.37;10.67;;;;;;;12.67;100.00;93118.16;5092422;28;20222;-69
2023/05/09 04:30:10;;;;;;;10.97;10.27;;;;;;;12.99;99.56;93147.19;5091988;28;20232;-70
2023/05/09 04:32:36;;;;;;;11.60;10.80;;;;;;;13.22;98.73;93146.41;5092013;28;20183;-68
2023/05/09 04:35:02;;;;;;;11.03;10.20;;;;;;;13.28;97.93;93149.72;5091032;28;20228;-70
2023/05/09 04:37:28;;;;;;;11.17;10.43;;;;;;;13.45;96.44;93163.94;5092386;28;20199;-69
2023/05/09 04:39:53;;;;;;;11.53;10.90;;;;;;;13.04;96.75;93155.03;5092160;28;21008;-69
2023/05/09 04:42:19;;;;;;;12.00;10.97;;;;;;;13.38;97.08;93158.28;5092154;28;20253;-70
2023/05/09 04:44:45;;;;;;;10.37;9.83;;;;;;;13.67;94.61;93155.53;5091780;28;20228;-70
2023/05/09 04:47:10;;;;;;;10.80;10.17;;;;;;;13.79;92.64;93161.91;5092370;28;20219;-70
2023/05/09 04:49:36;;;;;;;12.53;11.53;;;;;;;13.79;90.98;93163.78;5091284;28;20268;-71
2023/05/09 04:52:01;;;;;;;11.40;10.53;;;;;;;13.82;92.36;93150.84;5091565;28;20185;-68
2023/05/09 04:54:26;;;;;;;10.43;9.83;;;;;;;13.99;89.17;93161.59;5091458;28;20252;-68
2023/05/09 04:56:52;;;;;;;10.83;10.23;;;;;;;14.20;85.37;93168.13;5090675;28;20203;-70
2023/05/09 04:59:17;;;;;;;10.47;9.40;;;;;;;14.29;85.17;93166.44;5090815;28;20248;-71
2023/05/09 05:01:43;;;;;;;10.43;9.90;;;;;;;14.36;85.56;93164.22;5091207;28;20199;-70
2023/05/09 05:04:08;;;;;;;10.03;9.43;;;;;;;14.63;84.42;93173.25;5091550;28;20192;-69
2023/05/09 05:06:34;;;;;;;9.80;9.20;;;;;;;14.69;83.29;93166.84;5091198;28;20236;-70
2023/05/09 05:08:59;;;;;;;10.63;9.93;;;;;;;14.79;83.25;93162.16;5073333;28;20189;-69
2023/05/09 05:11:25;;;;;;;10.27;9.47;;;;;;;15.10;79.92;93165.00;5091374;28;20243;-68
2023/05/09 05:13:50;;;;;;;11.50;10.80;;;;;;;15.16;80.07;93164.63;5086736;28;20211;-68
2023/05/09 05:16:16;;;;;;;11.13;10.33;;;;;;;15.08;80.84;93161.91;5090154;28;20255;-68
2023/05/09 05:18:41;;;;;;;9.80;9.30;;;;;;;14.74;81.33;93161.50;5091707;28;20244;-67
2023/05/09 05:21:07;;;;;;;11.87;11.17;;;;;;;14.71;82.45;93162.84;5091187;28;20230;-67
2023/05/09 05:23:32;;;;;;;10.90;10.23;;;;;;;14.61;83.59;93163.03;5091321;28;20244;-67
2023/05/09 05:25:58;;;;;;;11.60;10.77;;;;;;;14.15;85.40;93160.31;5091405;28;20217;-67
2023/05/09 05:28:23;;;;;;;10.57;9.83;;;;;;;13.71;87.40;93149.41;5091197;28;20212;-67
2023/05/09 05:30:49;;;;;;;10.57;9.90;;;;;;;13.88;88.51;93168.06;5090790;28;20224;-67
2023/05/09 05:33:14;;;;;;;10.67;9.93;;;;;;;14.04;88.61;93169.41;5091194;28;20188;-68
2023/05/09 05:35:40;;;;;;;10.60;10.00;;;;;;;14.06;87.75;93167.28;5089420;28;20231;-68
2023/05/09 05:38:05;;;;;;;11.80;10.80;;;;;;;13.91;88.88;93158.88;5091045;28;20230;-67
2023/05/09 05:40:31;;;;;;;11.47;10.67;;;;;;;13.84;90.16;93168.94;5090583;28;20260;-68
2023/05/09 05:42:56;;;;;;;12.60;11.70;;;;;;;14.10;89.51;93168.28;5091308;28;20197;-68
2023/05/09 05:45:21;;;;;;;11.23;10.53;;;;;;;14.36;89.77;93171.31;5090411;28;20284;-68
2023/05/09 05:47:47;;;;;;;11.10;10.50;;;;;;;14.44;86.58;93168.81;5090867;28;20196;-68
2023/05/09 05:50:12;;;;;;;10.83;10.23;;;;;;;14.39;86.50;93168.91;5089592;28;20220;-68
2023/05/09 05:52:39;;;;;;;10.63;10.03;;;;;;;14.19;87.50;93158.66;5090960;28;20169;-68
2023/05/09 05:55:05;;;;;;;11.27;10.57;;;;;;;14.42;87.19;93170.16;5089286;28;20934;-68
2023/05/09 05:57:30;;;;;;;10.33;9.73;;;;;;;14.15;87.21;93170.81;5090275;28;20280;-69
2023/05/09 05:59:56;;;;;;;11.07;10.47;;;;;;;14.13;88.37;93180.81;5089934;28;20240;-67
2023/05/09 06:02:21;;;;;;;9.73;9.23;;;;;;;13.92;89.49;93171.69;5090886;28;20191;-67
2023/05/09 06:04:47;;;;;;;10.93;10.03;;;;;;;13.71;91.10;93151.28;5083073;28;20225;-68
2023/05/09 06:07:12;;;;;;;10.77;10.10;;;;;;;13.43;93.69;93173.94;5086125;28;20181;-68
2023/05/09 06:09:38;;;;;;;9.47;8.97;;;;;;;13.36;93.54;93168.25;5090167;28;20234;-68
2023/05/09 06:12:05;;;;;;;9.33;8.83;;;;;;;13.13;94.50;93155.16;5090235;28;20212;-69
2023/05/09 06:14:31;;;;;;;9.60;9.10;;;;;;;13.26;95.38;93178.84;5089712;28;20236;-68
2023/05/09 06:16:57;;;;;;;8.97;8.37;;;;;;;13.32;96.30;93174.34;5090177;28;20227;-67
2023/05/09 06:19:22;;;;;;;9.00;8.53;;;;;;;13.47;95.89;93171.53;5089768;28;20255;-68
2023/05/09 06:21:48;;;;;;;8.93;8.53;;;;;;;13.51;94.17;93169.94;5090364;28;20200;-67
2023/05/09 06:24:13;;;;;;;9.30;8.90;;;;;;;13.61;93.64;93169.78;5090120;28;20197;-67
2023/05/09 06:26:39;;;;;;;9.30;8.80;;;;;;;13.46;94.18;93172.59;5089749;28;20217;-68
2023/05/09 06:29:05;;;;;;;11.07;10.53;;;;;;;13.61;94.54;93175.81;5090247;28;20201;-67
2023/05/09 06:31:31;;;;;;;11.20;10.60;;;;;;;13.72;93.28;93166.75;5089610;28;20553;-67
2023/05/09 06:33:56;;;;;;;9.87;9.17;;;;;;;13.86;93.61;93178.09;5090050;28;21006;-66
2023/05/09 06:36:21;;;;;;;8.93;8.33;;;;;;;13.88;93.37;93175.94;5089451;28;20235;-67
2023/05/09 06:38:47;;;;;;;10.67;10.13;;;;;;;14.04;91.44;93169.41;5089356;28;20226;-67
2023/05/09 06:41:12;;;;;;;9.80;9.20;;;;;;;14.09;91.66;93176.44;5089592;28;20225;-67
2023/05/09 06:43:38;;;;;;;8.53;8.20;;;;;;;14.27;88.57;93171.19;5089846;28;20185;-66
2023/05/09 06:46:03;;;;;;;8.77;8.23;;;;;;;14.30;88.75;93173.22;5087515;28;20231;-67
2023/05/09 06:48:28;;;;;;;8.37;7.97;;;;;;;14.43;86.62;93185.66;5088627;28;20196;-67
2023/05/09 06:50:54;;;;;;;8.43;8.03;;;;;;;14.36;86.13;93171.31;5071992;28;20217;-68
2023/05/09 06:53:19;;;;;;;8.77;8.37;;;;;;;14.29;86.00;93178.78;5071675;28;20192;-68
2023/05/09 06:55:45;;;;;;;10.50;10.03;;;;;;;14.16;87.11;93172.38;5088173;28;20252;-67
2023/05/09 06:58:11;;;;;;;8.30;8.00;;;;;;;14.06;87.13;93167.28;5089431;28;20208;-68
2023/05/09 07:00:36;;;;;;;8.33;8.03;;;;;;;13.90;87.31;93173.06;5088839;28;20745;-69
2023/05/09 07:03:02;;;;;;;7.93;7.53;;;;;;;13.69;88.18;93158.66;5089444;28;20187;-68
2023/05/09 07:05:27;;;;;;;9.17;8.77;;;;;;;13.82;88.29;93171.84;5088797;28;20906;-68
2023/05/09 07:07:55;;;;;;;7.93;7.63;;;;;;;13.77;87.51;93161.44;5089527;28;20199;-68
2023/05/09 07:10:21;;;;;;;8.13;7.83;;;;;;;13.94;88.29;93166.16;5087044;28;20236;-68
2023/05/09 07:12:46;;;;;;;7.90;7.60;;;;;;;14.08;88.47;93169.63;5083555;28;20188;-68
2023/05/09 07:15:12;;;;;;;8.93;8.50;;;;;;;14.16;86.53;93164.50;5088796;28;20224;-69
2023/05/09 07:17:37;;;;;;;8.60;8.30;;;;;;;14.14;86.11;93171.91;5089182;28;20212;-67
2023/05/09 07:20:03;;;;;;;8.57;8.00;;;;;;;14.12;87.08;93166.16;5089049;28;20220;-68
2023/05/09 07:22:29;;;;;;;7.03;6.60;;;;;;;14.23;84.83;93167.56;5088947;28;20193;-68
2023/05/09 07:24:54;;;;;;;7.23;6.97;;;;;;;14.44;83.96;93179.31;5088338;28;20235;-68
2023/05/09 07:27:20;;;;;;;8.40;7.83;;;;;;;14.26;84.36;93166.22;5088309;28;20212;-68
2023/05/09 07:29:45;;;;;;;7.53;7.27;;;;;;;14.42;83.49;93176.22;5088005;28;20252;-67
2023/05/09 07:32:10;;;;;;;7.80;7.50;;;;;;;14.42;82.92;93168.34;5080507;28;20196;-67
2023/05/09 07:34:36;;;;;;;9.33;8.93;;;;;;;14.64;82.29;93177.44;5088185;28;20228;-68
2023/05/09 07:37:01;;;;;;;7.37;7.07;;;;;;;14.79;80.59;93177.16;5088387;28;20276;-67
2023/05/09 07:39:27;;;;;;;8.33;8.03;;;;;;;14.64;79.53;93183.47;5089171;28;20181;-68
2023/05/09 07:41:52;;;;;;;8.67;8.13;;;;;;;14.62;80.34;93185.59;5088721;28;20208;-69
2023/05/09 07:44:17;;;;;;;8.30;8.00;;;;;;;14.60;80.47;93186.97;5088606;28;20200;-70
2023/05/09 07:46:43;;;;;;;7.87;7.57;;;;;;;14.54;81.02;93188.13;5088165;28;20189;-70
2023/05/09 07:49:08;;;;;;;8.03;7.50;;;;;;;14.67;80.65;93187.34;5088168;28;20184;-70
2023/05/09 07:51:34;;;;;;;8.53;8.13;;;;;;;14.98;79.42;93183.91;5087974;28;20288;-69
2023/05/09 07:54:00;;;;;;;8.47;8.07;;;;;;;15.11;78.78;93187.63;5088479;28;20189;-68
2023/05/09 07:56:25;;;;;;;11.70;10.47;;;;;;;15.15;78.25;93178.84;5087310;28;20231;-68
2023/05/09 07:58:50;;;;;;;11.80;10.70;;;;;;;15.10;77.14;93176.31;5088211;28;20193;-67
2023/05/09 08:01:16;;;;;;;8.87;8.43;;;;;;;15.17;77.69;93183.81;5088252;28;20216;-68
2023/05/09 08:03:41;;;;;;;9.73;9.13;;;;;;;15.34;77.11;93150.59;5088837;28;20193;-67
2023/05/09 08:06:07;;;;;;;8.67;8.27;;;;;;;15.53;78.95;93137.34;5088196;28;20239;-68
2023/05/09 08:08:32;;;;;;;8.30;7.83;;;;;;;16.13;74.99;93180.00;5088710;28;20199;-67
2023/05/09 08:10:58;;;;;;;8.53;8.13;;;;;;;15.90;74.91;93184.47;5087990;28;20781;-66
2023/05/09 08:13:23;;;;;;;7.93;7.53;;;;;;;15.75;73.26;93167.13;5088261;28;20189;-67
2023/05/09 08:15:49;;;;;;;8.47;8.07;;;;;;;15.58;73.54;93176.72;5087960;28;20257;-67
2023/05/09 08:18:14;;;;;;;7.57;7.27;;;;;;;15.34;74.43;93176.91;5088295;28;20192;-67
2023/05/09 08:20:40;;;;;;;7.63;7.33;;;;;;;15.18;75.32;93185.38;5087971;28;20228;-67
2023/05/09 08:23:06;;;;;;;8.37;7.97;;;;;;;15.16;75.29;93180.41;5088000;28;20204;-67
2023/05/09 08:25:31;;;;;;;9.13;8.63;;;;;;;15.16;75.22;93187.53;5088542;28;20236;-68
2023/05/09 08:27:57;;;;;;;8.60;8.20;;;;;;;15.10;75.49;93183.41;5088369;28;20189;-67
2023/05/09 08:30:22;;;;;;;8.60;8.10;;;;;;;14.80;77.33;93181.34;5088163;28;20270;-67
2023/05/09 08:32:48;;;;;;;8.03;7.73;;;;;;;14.50;79.04;93180.03;5088251;28;20208;-67
2023/05/09 08:35:13;;;;;;;7.83;7.53;;;;;;;14.09;80.45;93139.69;5087559;28;20228;-67
2023/05/09 08:37:38;;;;;;;9.77;9.03;;;;;;;13.99;80.40;93160.84;5087721;28;20211;-67
2023/05/09 08:40:08;;;;;;;7.70;7.40;;;;;;;14.04;81.57;93177.28;5088038;28;20239;-67
2023/05/09 08:42:36;;;;;;;8.40;8.00;;;;;;;13.91;83.43;93175.41;5088107;28;20177;-68
2023/05/09 08:45:13;;;;;;;11.63;10.53;;;;;;;13.78;84.96;93175.31;5103645;28;20228;-67
2023/05/09 08:47:40;;;;;;;17.47;11.63;;;;;;;13.76;85.27;93175.59;5082103;28;20203;-67
2023/05/09 08:50:07;;;;;;;10.57;9.47;;;;;;;13.62;85.67;93166.88;5069952;28;20228;-67
2023/05/09 08:52:33;;;;;;;9.87;9.23;;;;;;;13.67;87.46;93169.44;5088110;28;20177;-67
2023/05/09 08:55:05;;;;;;;8.73;8.27;;;;;;;13.67;87.29;93169.44;5084406;28;20268;-68
2023/05/09 08:57:34;;;;;;;8.90;8.50;;;;;;;13.65;89.17;93171.53;5086780;28;20184;-68
2023/05/09 08:59:59;;;;;;;8.13;7.77;;;;;;;13.61;89.14;93144.31;5086816;28;20255;-69
2023/05/09 09:02:25;;;;;;;8.00;7.70;;;;;;;13.57;89.60;93159.06;5088330;28;20188;-68
2023/05/09 09:04:50;;;;;;;8.23;7.87;;;;;;;13.59;91.61;93156.16;5086975;28;20236;-69
2023/05/09 09:07:17;;;;;;;8.57;7.93;;;;;;;13.63;89.93;93173.69;5087728;28;20219;-68
2023/05/09 09:09:47;;;;;;;8.67;8.37;;;;;;;13.66;91.09;93167.88;5088125;28;20265;-67
2023/05/09 09:12:15;;;;;;;8.57;8.17;;;;;;;13.90;89.28;93170.44;5091620;28;20203;-68
2023/05/09 09:14:46;;;;;;;8.23;7.83;;;;;;;13.74;88.42;93159.34;5090818;28;20270;-68
2023/05/09 09:17:17;;;;;;;8.37;8.07;;;;;;;13.80;88.50;93173.19;5091510;28;20262;-68
2023/05/09 09:19:44;;;;;;;9.10;8.70;;;;;;;13.78;87.44;93175.31;5090977;28;20244;-69
2023/05/09 09:22:14;;;;;;;10.67;9.93;;;;;;;13.67;86.65;93179.13;5072940;28;20200;-69
2023/05/09 09:24:39;;;;;;;9.03;8.57;;;;;;;13.50;88.43;93158.63;5088844;28;20228;-68
2023/05/09 09:27:05;;;;;;;8.70;8.40;;;;;;;13.52;88.37;93181.97;5092193;28;20188;-69
2023/05/09 09:29:32;;;;;;;9.23;8.90;;;;;;;13.56;89.27;93173.25;5091368;28;20277;-71
2023/05/09 09:32:01;;;;;;;8.73;8.27;;;;;;;13.72;89.19;93176.44;5091997;28;20244;-68
2023/05/09 09:34:27;;;;;;;10.13;9.33;;;;;;;13.50;88.69;93174.38;5091117;28;20232;-72
2023/05/09 09:36:52;;;;;;;10.90;10.30;;;;;;;13.42;89.32;93169.75;5091621;28;20215;-72
2023/05/09 09:39:18;;;;;;;9.30;8.77;;;;;;;13.15;89.34;93130.25;5091242;28;20185;-72
2023/05/09 09:41:43;;;;;;;10.90;10.17;;;;;;;13.25;90.50;93166.03;5091871;28;20193;-72
2023/05/09 09:44:16;;;;;;;9.63;9.13;;;;;;;13.31;90.39;93168.31;5092575;28;20185;-72
2023/05/09 09:46:54;;;;;;;9.87;9.47;;;;;;;13.17;91.29;93175.31;5091797;28;20224;-73
2023/05/09 09:49:24;;;;;;;9.43;8.90;;;;;;;13.06;91.20;93173.84;5080980;28;20247;-72
2023/05/09 09:51:55;;;;;;;10.23;9.20;;;;;;;12.96;92.18;93181.81;5091506;28;20185;-72
2023/05/09 09:54:21;;;;;;;9.13;8.73;;;;;;;12.95;93.06;93177.63;5090883;28;20189;-72
2023/05/09 09:56:48;;;;;;;9.60;9.20;;;;;;;13.05;93.35;93176.75;5091149;28;20231;-72
2023/05/09 09:59:21;;;;;;;9.70;9.30;;;;;;;13.18;92.51;93182.13;5073704;28;20192;-73
2023/05/09 10:02:04;;;;;;;9.30;8.90;;;;;;;13.24;92.36;93181.00;5090592;28;20211;-72
2023/05/09 10:04:31;;;;;;;9.57;9.17;;;;;;;13.17;90.95;93135.22;5090543;28;20253;-72
2023/05/09 10:06:59;;;;;;;8.80;8.40;;;;;;;13.43;91.35;93173.94;5091383;28;20177;-71
2023/05/09 10:09:26;;;;;;;8.47;8.07;;;;;;;13.64;91.82;93172.63;5091717;28;20246;-72
2023/05/09 10:11:52;;;;;;;9.73;9.33;;;;;;;14.02;90.09;93171.53;5091670;28;20185;-72
2023/05/09 10:14:20;;;;;;;8.70;8.27;;;;;;;14.18;88.23;93169.47;5091524;28;20199;-72
2023/05/09 10:16:50;;;;;;;9.13;8.57;;;;;;;14.31;87.44;93174.03;5091818;28;20218;-72
2023/05/09 10:19:21;;;;;;;10.17;9.57;;;;;;;14.13;87.63;93170.31;5091805;28;20201;-72
2023/05/09 10:21:51;;;;;;;11.47;10.43;;;;;;;14.06;87.43;93174.38;5080314;28;20224;-72
2023/05/09 10:24:26;;;;;;;10.23;9.60;;;;;;;14.09;88.33;93173.81;5091535;28;20189;-72
2023/05/09 10:26:57;;;;;;;10.50;9.80;;;;;;;14.19;87.90;93169.19;5091763;28;20284;-72
2023/05/09 10:29:26;;;;;;;10.83;10.03;;;;;;;14.21;88.45;93168.91;5091191;28;20192;-72
2023/05/09 10:31:57;;;;;;;10.50;9.90;;;;;;;14.15;88.33;93155.06;5091832;28;20187;-72
2023/05/09 10:34:25;;;;;;;11.03;10.33;;;;;;;14.09;88.70;93158.84;5090124;28;20227;-72
2023/05/09 10:36:51;;;;;;;10.47;9.73;;;;;;;14.12;88.83;93171.41;5091355;28;20217;-73
2023/05/09 10:39:17;;;;;;;11.80;10.83;;;;;;;14.21;88.16;93158.41;5091375;28;20208;-71
2023/05/09 10:41:43;;;;;;;13.10;11.90;;;;;;;14.34;87.15;93171.63;5098347;28;20212;-72
2023/05/09 10:44:09;;;;;;;12.63;11.53;;;;;;;14.35;87.33;93159.25;5091545;28;20181;-72
2023/05/09 10:46:36;;;;;;;11.67;10.67;;;;;;;14.30;87.74;93162.72;5071872;28;20244;-72
2023/05/09 10:49:02;;;;;;;10.33;9.63;;;;;;;14.25;88.21;93168.09;5071206;28;20216;-73
2023/05/09 10:51:27;;;;;;;9.90;9.17;;;;;;;14.15;88.12;93170.03;5070948;28;20217;-72
2023/05/09 10:53:55;;;;;;;10.90;9.90;;;;;;;13.98;89.16;93170.56;5071368;28;20186;-73
2023/05/09 10:56:31;;;;;;;13.60;12.50;;;;;;;13.97;89.82;93170.84;5070804;28;20311;-72
2023/05/09 10:59:00;;;;;;;11.40;10.50;;;;;;;13.76;91.42;93167.72;5059207;28;20219;-72
2023/05/09 11:01:36;;;;;;;11.87;11.07;;;;;;;13.79;91.13;93164.53;5070327;28;20225;-72
2023/05/09 11:04:17;;;;;;;11.93;11.10;;;;;;;13.92;90.93;93157.78;5071180;28;20192;-72
2023/05/09 11:06:48;;;;;;;11.53;10.63;;;;;;;13.95;91.17;93159.84;5070314;28;20228;-72
2023/05/09 11:09:27;;;;;;;10.97;10.27;;;;;;;13.77;91.72;93161.44;5053344;28;20217;-72
2023/05/09 11:11:59;;;;;;;10.93;10.13;;;;;;;14.12;90.28;93160.91;5063190;28;20213;-72
2023/05/09 11:14:34;;;;;;;10.70;10.03;;;;;;;14.11;89.51;93148.84;5070090;28;20199;-72
2023/05/09 11:17:05;;;;;;;11.90;11.10;;;;;;;14.36;89.31;93158.19;5070547;28;20287;-72
2023/05/09 11:19:44;;;;;;;11.17;10.23;;;;;;;14.70;87.13;93163.13;5069786;28;20204;-73